Time;durP1;ratioP1;P1;durP2;ratioP2;P2;SDS_P1;SDS_P2;PMS_P1;PMS_P2;Temp;Humidity;BMP_temperature;BMP_pressure;BME280_temperature;BME280_humidity;BME280_pressure;Samples;Min_cycle;Max_cycle;Signal;HPM_P1;HPM_P2
2023/03/18 00:00:36;;;;;;;11.52;5.70;;;;;;;0.01;69.75;95202.22;5094271;28;20292;-79
2023/03/18 00:03:01;;;;;;;8.98;5.40;;;;;;;-0.10;69.38;95167.66;5094258;28;20030;-79
2023/03/18 00:05:27;;;;;;;10.27;5.57;;;;;;;0.04;69.03;95186.78;5077170;28;20056;-79
2023/03/18 00:07:52;;;;;;;9.15;5.20;;;;;;;0.04;69.09;95197.00;5077209;28;20019;-79
2023/03/18 00:10:19;;;;;;;8.25;4.93;;;;;;;0.05;68.56;95175.66;5111033;28;20027;-79
2023/03/18 00:12:45;;;;;;;10.20;5.35;;;;;;;0.17;68.81;95191.41;5110995;28;20032;-79
2023/03/18 00:15:12;;;;;;;10.10;5.25;;;;;;;0.13;68.37;95194.09;5077037;28;20113;-79
2023/03/18 00:17:39;;;;;;;12.98;6.53;;;;;;;0.03;68.38;95167.22;5093953;28;20038;-79
2023/03/18 00:20:05;;;;;;;10.43;5.72;;;;;;;0.10;68.56;95191.66;5093924;28;20036;-79
2023/03/18 00:22:35;;;;;;;16.70;9.50;;;;;;;-0.07;68.51;95185.44;5093951;28;20080;-80
2023/03/18 00:25:00;;;;;;;15.48;8.95;;;;;;;-0.42;68.92;95158.56;5077050;28;20047;-79
2023/03/18 00:27:26;;;;;;;20.10;10.95;;;;;;;-0.37;69.58;95183.94;5110716;28;20455;-79
2023/03/18 00:29:52;;;;;;;18.13;9.48;;;;;;;-0.59;70.44;95150.66;5110754;28;20110;-79
2023/03/18 00:32:17;;;;;;;20.52;10.48;;;;;;;-0.49;70.38;95160.50;5072726;28;20412;-79
2023/03/18 00:34:43;;;;;;;18.48;9.80;;;;;;;-0.36;70.13;95177.94;5090421;28;20482;-79
2023/03/18 00:37:09;;;;;;;17.23;10.00;;;;;;;-0.42;70.38;95179.00;5091548;28;20024;-79
2023/03/18 00:39:36;;;;;;;17.60;10.20;;;;;;;-0.62;70.72;95150.75;5075373;28;20056;-79
2023/03/18 00:42:09;;;;;;;16.67;8.48;;;;;;;-0.53;70.77;95171.72;5077033;28;20054;-80
2023/03/18 00:44:34;;;;;;;14.63;8.10;;;;;;;-0.53;71.05;95164.06;5110601;28;20136;-79
2023/03/18 00:47:00;;;;;;;13.85;7.03;;;;;;;-0.60;70.90;95165.16;5093137;28;20061;-79
2023/03/18 00:49:25;;;;;;;11.52;6.43;;;;;;;-0.80;70.85;95119.06;5109275;28;20504;-79
2023/03/18 00:51:52;;;;;;;13.93;8.27;;;;;;;-0.62;70.62;95148.22;5093304;28;20081;-79
2023/03/18 00:54:19;;;;;;;15.38;8.48;;;;;;;-0.70;71.06;95140.81;5093478;28;20055;-79
2023/03/18 00:56:45;;;;;;;12.65;7.55;;;;;;;-0.92;70.98;95113.50;5093629;28;20023;-80
2023/03/18 00:59:10;;;;;;;11.90;7.22;;;;;;;-0.79;70.96;95136.03;5075794;28;20397;-79
2023/03/18 01:01:36;;;;;;;13.15;7.70;;;;;;;-0.82;70.92;95138.69;5093328;28;20055;-80
2023/03/18 01:04:03;;;;;;;13.95;8.45;;;;;;;-0.90;70.72;95138.94;5110096;28;20209;-79
2023/03/18 01:06:31;;;;;;;16.50;9.63;;;;;;;-0.88;71.41;95139.72;5092971;28;20055;-79
2023/03/18 01:08:57;;;;;;;21.77;11.07;;;;;;;-1.05;71.29;95136.91;5090918;28;20594;-79
2023/03/18 01:11:23;;;;;;;17.77;9.85;;;;;;;-1.09;71.18;95123.38;5073097;28;20085;-79
2023/03/18 01:13:49;;;;;;;12.70;7.70;;;;;;;-1.12;71.08;95109.03;5089962;28;20032;-79
2023/03/18 01:16:14;;;;;;;19.13;11.25;;;;;;;-1.21;71.19;95122.06;5078264;28;20100;-79
2023/03/18 01:18:40;;;;;;;20.63;11.35;;;;;;;-1.22;71.75;95119.59;5093119;28;20038;-79
2023/03/18 01:21:07;;;;;;;16.70;9.82;;;;;;;-1.13;71.48;95126.94;5076411;28;20442;-79
2023/03/18 01:23:34;;;;;;;27.23;13.75;;;;;;;-1.25;72.28;95128.16;5076369;28;20026;-79
2023/03/18 01:26:00;;;;;;;23.35;12.50;;;;;;;-1.30;72.70;95124.09;5098105;28;20438;-79
2023/03/18 01:28:26;;;;;;;18.83;10.80;;;;;;;-1.35;72.65;95112.31;5089569;28;20028;-79
2023/03/18 01:30:52;;;;;;;35.10;16.45;;;;;;;-1.19;73.08;95125.41;5089732;28;20546;-79
2023/03/18 01:33:18;;;;;;;27.48;14.88;;;;;;;-1.17;73.01;95125.34;5089670;28;20016;-79
2023/03/18 01:35:45;;;;;;;31.23;17.05;;;;;;;-1.15;73.30;95131.25;5089355;28;20042;-79
2023/03/18 01:38:11;;;;;;;23.83;13.65;;;;;;;-1.21;73.47;95121.25;5089392;28;20067;-79
2023/03/18 01:40:39;;;;;;;25.20;14.05;;;;;;;-1.27;72.80;95109.53;5106492;28;20064;-79
2023/03/18 01:43:16;;;;;;;19.95;11.70;;;;;;;-1.15;72.29;95121.88;5075512;28;20101;-79
2023/03/18 01:45:53;;;;;;;22.88;12.90;;;;;;;-1.33;73.06;95126.75;5109786;28;20031;-79
2023/03/18 01:48:20;;;;;;;25.98;12.93;;;;;;;-1.21;72.17;95122.06;5109764;28;20027;-79
2023/03/18 01:50:51;;;;;;;23.60;13.43;;;;;;;-1.52;72.80;95117.13;5109679;28;20031;-80
2023/03/18 01:53:16;;;;;;;22.88;12.75;;;;;;;-1.72;73.60;95099.06;5075818;28;20020;-79
2023/03/18 01:55:42;;;;;;;27.88;13.82;;;;;;;-1.90;73.23;95073.25;5092795;28;20063;-79
2023/03/18 01:58:13;;;;;;;24.58;12.93;;;;;;;-1.55;73.19;95112.13;5094507;28;20276;-79
2023/03/18 02:00:41;;;;;;;21.88;10.98;;;;;;;-1.71;73.47;95090.53;5096996;28;20463;-79
2023/03/18 02:03:06;;;;;;;23.35;12.20;;;;;;;-1.50;73.40;95109.44;5077586;28;20028;-79
2023/03/18 02:05:32;;;;;;;21.13;11.77;;;;;;;-1.88;73.40;95068.94;5076037;28;20524;-79
2023/03/18 02:07:57;;;;;;;21.20;12.45;;;;;;;-1.88;74.44;95086.78;5076123;28;20024;-79
2023/03/18 02:10:27;;;;;;;20.98;12.70;;;;;;;-1.87;74.29;95088.44;5059108;28;20035;-80
2023/03/18 02:13:05;;;;;;;20.15;11.27;;;;;;;-1.72;73.89;95106.72;5092844;28;20055;-79
2023/03/18 02:15:32;;;;;;;20.30;10.95;;;;;;;-1.54;73.13;95112.94;5092744;28;20386;-79
2023/03/18 02:18:09;;;;;;;24.42;13.68;;;;;;;-1.60;73.23;95104.59;5109918;28;20428;-79
2023/03/18 02:20:47;;;;;;;21.00;11.27;;;;;;;-1.69;73.90;95114.25;5109676;27;20043;-79
2023/03/18 02:23:35;;;;;;;20.85;10.95;;;;;;;-1.68;74.12;95111.66;5109514;28;20675;-79
2023/03/18 02:26:27;;;;;;;20.58;10.80;;;;;;;-1.98;74.41;95056.53;5109595;28;20040;-79
2023/03/18 02:28:53;;;;;;;20.45;9.68;;;;;;;-1.56;74.58;95110.47;5092718;28;20020;-79
2023/03/18 02:31:19;;;;;;;18.55;9.68;;;;;;;-1.96;74.47;95053.06;5092460;28;20028;-79
2023/03/18 02:33:44;;;;;;;18.85;10.05;;;;;;;-1.65;74.66;95115.81;5092383;28;20524;-79
2023/03/18 02:36:16;;;;;;;16.75;9.90;;;;;;;-1.67;74.78;95087.84;5058749;28;20032;-80
2023/03/18 02:38:42;;;;;;;20.63;10.80;;;;;;;-1.55;74.62;95109.56;5076197;28;20032;-79
2023/03/18 02:41:19;;;;;;;20.60;10.10;;;;;;;-1.49;74.61;95111.91;5092330;28;20031;-79
2023/03/18 02:43:45;;;;;;;11.52;6.25;;;;;;;-1.57;74.14;95101.13;5092172;28;20503;-79
2023/03/18 02:46:39;;;;;;;17.13;8.25;;;;;;;-1.52;74.25;95101.00;5093304;28;20028;-79
2023/03/18 02:49:06;;;;;;;10.63;6.43;;;;;;;-1.44;73.69;95115.16;5104280;28;20054;-79
2023/03/18 02:51:32;;;;;;;12.27;6.20;;;;;;;-1.31;72.75;95102.00;5112477;28;20026;-79
2023/03/18 02:54:00;;;;;;;12.20;6.60;;;;;;;-1.21;72.42;95101.69;5078515;28;20413;-80
2023/03/18 02:56:26;;;;;;;10.48;5.85;;;;;;;-1.36;71.96;95082.63;5078196;28;20292;-79
2023/03/18 02:58:51;;;;;;;9.15;5.05;;;;;;;-1.13;71.66;95098.88;5095314;28;20374;-79
2023/03/18 03:01:17;;;;;;;11.20;5.72;;;;;;;-1.12;71.58;95100.53;5095272;28;20027;-80
2023/03/18 03:03:42;;;;;;;9.40;5.63;;;;;;;-1.17;71.62;95097.31;5092222;28;20584;-79
2023/03/18 03:06:08;;;;;;;7.88;5.30;;;;;;;-1.38;72.04;95092.03;5091115;28;20093;-80
2023/03/18 03:08:33;;;;;;;11.05;6.03;;;;;;;-1.66;72.16;95064.03;5055777;28;20023;-80
2023/03/18 03:10:59;;;;;;;13.45;7.80;;;;;;;-1.42;72.73;95103.22;5074687;28;20481;-80
2023/03/18 03:13:25;;;;;;;14.32;7.45;;;;;;;-1.43;73.06;95083.69;5091666;28;20051;-79
2023/03/18 03:15:51;;;;;;;16.67;9.32;;;;;;;-1.38;73.67;95104.78;5058109;28;20074;-79
2023/03/18 03:18:16;;;;;;;26.45;12.30;;;;;;;-1.33;73.56;95107.19;5091532;28;20034;-79
2023/03/18 03:20:42;;;;;;;23.23;11.63;;;;;;;-1.26;73.00;95108.63;5073149;28;20094;-80
2023/03/18 03:23:09;;;;;;;11.45;6.45;;;;;;;-1.30;73.42;95109.63;5074771;28;20020;-79
2023/03/18 03:25:35;;;;;;;10.15;5.32;;;;;;;-1.51;72.73;95078.00;5108323;28;20464;-79
2023/03/18 03:28:01;;;;;;;8.68;4.88;;;;;;;-1.26;72.32;95108.63;5091317;28;20035;-79
2023/03/18 03:30:27;;;;;;;15.65;8.32;;;;;;;-1.42;73.41;95123.59;5074781;28;20379;-80
2023/03/18 03:32:53;;;;;;;14.77;6.72;;;;;;;-1.36;73.33;95117.47;5091627;28;20024;-79
2023/03/18 03:35:19;;;;;;;10.13;5.35;;;;;;;-1.44;72.30;95115.16;5092810;28;20039;-79
2023/03/18 03:37:44;;;;;;;7.80;4.72;;;;;;;-1.39;72.08;95108.22;5057649;28;20044;-79
2023/03/18 03:40:15;;;;;;;7.38;4.72;;;;;;;-1.31;71.97;95125.81;5074284;28;20061;-79
2023/03/18 03:42:41;;;;;;;8.98;5.28;;;;;;;-1.41;72.13;95107.41;5091262;28;20509;-79
2023/03/18 03:45:07;;;;;;;9.60;5.38;;;;;;;-1.40;72.31;95121.81;5074307;28;20032;-79
2023/03/18 03:47:32;;;;;;;13.23;6.82;;;;;;;-1.49;72.33;95086.44;5074070;28;20484;-80
2023/03/18 03:49:58;;;;;;;10.52;6.38;;;;;;;-1.39;71.87;95092.09;5091666;28;20032;-79
2023/03/18 03:52:23;;;;;;;7.45;4.93;;;;;;;-1.32;71.77;95100.38;5111584;28;20039;-80
2023/03/18 03:54:49;;;;;;;7.80;5.05;;;;;;;-1.25;71.47;95109.50;5111651;28;20088;-79
2023/03/18 03:57:15;;;;;;;8.98;5.13;;;;;;;-1.28;71.43;95104.47;5094367;28;20429;-79
2023/03/18 03:59:41;;;;;;;9.15;4.65;;;;;;;-1.17;71.17;95115.16;5077580;28;20024;-79
2023/03/18 04:02:06;;;;;;;7.20;4.68;;;;;;;-1.35;71.39;95094.47;5094391;28;20485;-79
2023/03/18 04:04:32;;;;;;;9.07;4.78;;;;;;;-1.30;71.02;95107.06;5112107;28;20077;-79
2023/03/18 04:06:57;;;;;;;9.10;5.40;;;;;;;-1.65;72.21;95090.34;5094329;28;20485;-79
2023/03/18 04:09:23;;;;;;;11.43;6.60;;;;;;;-1.54;72.57;95095.94;5094123;28;20032;-79
2023/03/18 04:11:48;;;;;;;16.60;8.23;;;;;;;-1.40;72.56;95137.09;5077256;28;20027;-79
2023/03/18 04:14:15;;;;;;;12.07;5.45;;;;;;;-1.44;72.50;95135.56;5111010;28;20035;-79
2023/03/18 04:16:40;;;;;;;13.30;6.85;;;;;;;-1.69;72.70;95132.09;5093959;28;20481;-79
2023/03/18 04:19:06;;;;;;;10.23;6.15;;;;;;;-1.80;72.58;95106.94;5110824;28;20031;-79
2023/03/18 04:21:32;;;;;;;10.35;5.88;;;;;;;-1.52;72.41;95142.59;5093190;28;20493;-78
2023/03/18 04:23:57;;;;;;;9.00;5.30;;;;;;;-1.91;72.67;95109.78;5112064;28;20035;-79
2023/03/18 04:26:23;;;;;;;9.65;5.15;;;;;;;-1.55;72.97;95160.53;5111925;28;20096;-79
2023/03/18 04:28:49;;;;;;;10.40;5.28;;;;;;;-1.58;72.65;95147.88;5076681;28;20413;-79
2023/03/18 04:31:15;;;;;;;9.75;5.93;;;;;;;-1.49;72.67;95165.44;5093645;28;20031;-79
2023/03/18 04:33:40;;;;;;;8.80;5.13;;;;;;;-1.63;72.54;95135.28;5093594;28;20028;-80
2023/03/18 04:36:07;;;;;;;8.45;5.03;;;;;;;-1.54;72.25;95131.59;5093499;28;20023;-79
2023/03/18 04:38:33;;;;;;;12.75;6.45;;;;;;;-1.29;72.04;95167.38;5093574;28;20028;-79
2023/03/18 04:40:58;;;;;;;8.45;4.68;;;;;;;-1.26;71.66;95174.09;5110475;28;20411;-79
2023/03/18 04:43:24;;;;;;;10.48;5.18;;;;;;;-1.38;71.65;95144.72;5076585;28;20035;-79
2023/03/18 04:45:49;;;;;;;9.77;5.43;;;;;;;-1.23;71.57;95163.78;5110345;28;20031;-79
2023/03/18 04:48:15;;;;;;;10.60;4.72;;;;;;;-1.14;71.10;95178.81;5093419;28;20032;-80
2023/03/18 04:50:40;;;;;;;10.20;5.00;;;;;;;-1.31;70.99;95150.44;5089677;28;20064;-79
2023/03/18 04:53:05;;;;;;;11.48;5.72;;;;;;;-1.17;71.07;95181.44;5088071;28;20044;-79
2023/03/18 04:55:32;;;;;;;13.18;6.32;;;;;;;-1.06;70.83;95183.66;5072537;28;20500;-79
2023/03/18 04:57:58;;;;;;;10.88;5.90;;;;;;;-1.09;70.59;95181.22;5107349;28;20027;-79
2023/03/18 05:00:23;;;;;;;8.70;4.80;;;;;;;-1.12;70.44;95185.50;5106028;28;20138;-79
2023/03/18 05:02:49;;;;;;;9.23;4.72;;;;;;;-1.16;70.36;95167.84;5089614;28;20404;-79
2023/03/18 05:05:14;;;;;;;7.97;4.82;;;;;;;-0.98;69.95;95177.44;5087858;28;20054;-79
2023/03/18 05:07:41;;;;;;;9.93;5.15;;;;;;;-1.13;70.24;95155.81;5072262;28;20028;-79
2023/03/18 05:10:07;;;;;;;9.18;4.80;;;;;;;-0.92;69.38;95173.84;5106231;28;20080;-79
2023/03/18 05:12:33;;;;;;;8.90;4.90;;;;;;;-1.11;69.01;95150.69;5088941;28;20034;-79
2023/03/18 05:14:58;;;;;;;8.13;4.85;;;;;;;-1.30;69.46;95135.13;5070198;28;20485;-79
2023/03/18 05:17:24;;;;;;;8.63;5.20;;;;;;;-1.09;69.33;95165.91;5089113;28;20047;-79
2023/03/18 05:19:49;;;;;;;7.88;4.60;;;;;;;-1.18;69.40;95144.09;5088345;28;20510;-79
2023/03/18 05:22:16;;;;;;;8.90;4.75;;;;;;;-1.04;69.12;95161.50;5072184;28;20035;-79
2023/03/18 05:24:42;;;;;;;8.73;4.40;;;;;;;-1.10;69.43;95148.94;5071407;28;20332;-80
2023/03/18 05:27:09;;;;;;;6.75;4.18;;;;;;;-0.92;69.27;95163.66;5089576;28;20433;-79
2023/03/18 05:29:35;;;;;;;7.97;4.70;;;;;;;-0.93;69.46;95162.00;5089974;28;20022;-79
2023/03/18 05:32:01;;;;;;;9.05;5.03;;;;;;;-0.87;69.37;95155.84;5089803;28;20035;-79
2023/03/18 05:34:27;;;;;;;7.35;4.30;;;;;;;-0.95;69.37;95126.34;5091281;28;20110;-79
2023/03/18 05:36:52;;;;;;;10.38;5.25;;;;;;;-0.91;68.99;95134.72;5093138;28;20032;-80
2023/03/18 05:39:18;;;;;;;8.52;4.30;;;;;;;-0.78;69.23;95151.28;5110092;28;20027;-79
2023/03/18 05:41:43;;;;;;;8.07;4.25;;;;;;;-0.52;69.08;95158.06;5109630;28;20031;-79
2023/03/18 05:44:09;;;;;;;7.40;4.60;;;;;;;-0.42;68.30;95102.41;5091066;27;20035;-79
2023/03/18 05:46:34;;;;;;;8.07;4.72;;;;;;;0.78;66.38;95149.91;5092852;28;20031;-80
2023/03/18 05:49:03;;;;;;;7.35;4.43;;;;;;;1.77;62.65;95152.66;5110011;28;20032;-79
2023/03/18 05:51:28;;;;;;;8.88;5.25;;;;;;;2.12;61.01;95157.97;5078101;27;20278;-80
2023/03/18 05:53:54;;;;;;;40.67;13.70;;;;;;;2.10;61.26;95156.38;5110129;27;20457;-79
2023/03/18 05:56:19;;;;;;;24.85;11.70;;;;;;;1.86;61.97;95155.72;5076977;28;20418;-79
2023/03/18 05:58:45;;;;;;;27.95;16.88;;;;;;;2.61;61.37;95173.69;5095649;27;20047;-79
2023/03/18 06:01:12;;;;;;;18.77;11.07;;;;;;;2.46;60.67;95176.97;5119336;27;21825;-80
2023/03/18 06:03:38;;;;;;;21.92;12.57;;;;;;;3.01;60.34;95182.13;5095817;27;20042;-79
2023/03/18 06:06:04;;;;;;;20.10;12.50;;;;;;;3.93;58.29;95181.91;5097402;27;20500;-80
2023/03/18 06:08:29;;;;;;;29.92;14.68;;;;;;;4.82;56.08;95175.50;5111591;27;20409;-79
2023/03/18 06:10:55;;;;;;;17.23;10.00;;;;;;;6.08;52.97;95170.94;5108702;28;20019;-80
2023/03/18 06:13:20;;;;;;;14.32;9.35;;;;;;;7.92;47.91;95151.56;5089321;28;20032;-80
2023/03/18 06:15:46;;;;;;;11.02;7.43;;;;;;;9.33;44.09;95167.69;5108377;27;20501;-80
2023/03/18 06:18:12;;;;;;;15.35;10.55;;;;;;;10.28;41.59;95171.06;5075437;28;20428;-79
2023/03/18 06:20:37;;;;;;;20.35;13.98;;;;;;;10.87;40.48;95145.78;5074709;28;20039;-79
2023/03/18 06:23:04;;;;;;;47.63;27.00;;;;;;;11.92;38.24;95174.63;5108846;28;20528;-79
2023/03/18 06:25:29;;;;;;;61.17;36.65;;;;;;;12.43;36.79;95159.06;5073883;27;20031;-78
2023/03/18 06:27:55;;;;;;;41.65;26.67;;;;;;;13.26;35.39;95157.16;5109253;28;20027;-80
2023/03/18 06:30:20;;;;;;;34.63;23.65;;;;;;;14.19;33.99;95158.38;5109663;28;20043;-80
2023/03/18 06:32:46;;;;;;;21.20;16.90;;;;;;;14.81;32.86;95155.31;5091461;28;20502;-80
2023/03/18 06:35:12;;;;;;;18.50;14.68;;;;;;;15.36;31.80;95150.06;5105782;27;20110;-80
2023/03/18 06:37:37;;;;;;;17.42;14.15;;;;;;;15.47;31.34;95147.22;5142882;27;20028;-80
2023/03/18 06:40:04;;;;;;;20.05;15.90;;;;;;;15.29;31.05;95128.03;5091915;28;20058;-78
2023/03/18 06:42:30;;;;;;;18.05;15.30;;;;;;;15.47;31.33;95141.16;5091302;28;20122;-83
2023/03/18 06:44:56;;;;;;;19.65;16.95;;;;;;;15.47;30.56;95118.41;5071183;28;20537;-83
2023/03/18 06:47:21;;;;;;;22.45;18.13;;;;;;;15.38;30.72;95127.19;5073956;28;20055;-81
2023/03/18 06:49:48;;;;;;;20.65;17.25;;;;;;;15.06;31.12;95118.00;5111652;28;20035;-78
2023/03/18 06:52:13;;;;;;;19.08;16.75;;;;;;;14.95;31.32;95126.06;5108640;28;20428;-80
2023/03/18 06:54:39;;;;;;;19.38;15.45;;;;;;;14.54;31.77;95096.78;5112254;28;20028;-79
2023/03/18 06:57:05;;;;;;;25.20;18.85;;;;;;;13.81;33.21;95130.50;5113174;28;20458;-79
2023/03/18 06:59:31;;;;;;;19.35;14.55;;;;;;;12.21;35.77;95101.91;5092495;28;20024;-80
2023/03/18 07:01:57;;;;;;;23.10;18.17;;;;;;;10.43;39.33;95142.25;5101555;28;20031;-77
2023/03/18 07:04:22;;;;;;;32.85;25.25;;;;;;;9.09;41.83;95140.94;5108868;27;20068;-79
2023/03/18 07:06:49;;;;;;;27.05;19.85;;;;;;;8.39;43.67;95139.78;5108475;28;20117;-77
2023/03/18 07:09:15;;;;;;;28.27;21.30;;;;;;;8.26;44.66;95136.34;5108831;28;20032;-78
2023/03/18 07:11:41;;;;;;;23.05;16.80;;;;;;;7.42;45.42;95109.22;5107117;28;20032;-79
2023/03/18 07:14:07;;;;;;;22.23;17.13;;;;;;;7.31;45.66;95091.81;5107248;28;20039;-81
2023/03/18 07:16:32;;;;;;;26.95;18.17;;;;;;;7.12;47.31;95146.44;5092340;28;20397;-80
2023/03/18 07:18:58;;;;;;;22.67;16.88;;;;;;;6.96;49.16;95144.94;5107365;28;20039;-83
2023/03/18 07:21:24;;;;;;;25.00;17.95;;;;;;;6.96;49.07;95132.00;5108132;27;20047;-77
2023/03/18 07:23:51;;;;;;;24.48;16.83;;;;;;;7.10;49.13;95143.13;5098423;28;20024;-78
2023/03/18 07:26:16;;;;;;;23.30;16.75;;;;;;;7.19;49.04;95151.19;5104687;28;20055;-79
2023/03/18 07:28:42;;;;;;;23.50;15.85;;;;;;;7.12;49.72;95136.09;5112232;28;20076;-79
2023/03/18 07:31:08;;;;;;;21.48;15.00;;;;;;;7.21;48.90;95118.34;5108903;28;20036;-81
2023/03/18 07:33:34;;;;;;;22.58;15.60;;;;;;;7.25;49.56;95143.91;5108073;28;20514;-83
2023/03/18 07:35:59;;;;;;;23.65;15.07;;;;;;;7.19;49.32;95146.88;5094956;27;20043;-78
2023/03/18 07:38:25;;;;;;;24.98;16.58;;;;;;;7.24;49.89;95125.91;5131684;27;20108;-84
2023/03/18 07:40:51;;;;;;;23.92;17.00;;;;;;;7.04;50.70;95159.00;5111835;27;20066;-75
2023/03/18 07:43:16;;;;;;;24.38;16.17;;;;;;;6.82;51.47;95143.22;5111723;28;20077;-76
2023/03/18 07:45:42;;;;;;;24.83;17.27;;;;;;;6.80;51.13;95121.81;5110514;28;20039;-75
2023/03/18 07:48:07;;;;;;;27.45;18.35;;;;;;;6.69;52.03;95156.06;5093807;28;20027;-77
2023/03/18 07:50:33;;;;;;;24.05;16.17;;;;;;;6.17;52.42;95151.50;5093346;28;20023;-77
2023/03/18 07:52:59;;;;;;;25.80;16.90;;;;;;;6.45;52.64;95155.81;5097175;28;20123;-83
2023/03/18 07:55:24;;;;;;;26.30;17.77;;;;;;;6.00;52.27;95036.47;5109587;28;20111;-78
2023/03/18 07:57:50;;;;;;;29.25;17.77;;;;;;;6.83;52.17;95152.63;5128215;27;20032;-77
2023/03/18 08:00:16;;;;;;;28.27;17.73;;;;;;;7.03;51.92;95152.19;5112542;27;20496;-80
2023/03/18 08:02:41;;;;;;;24.95;18.17;;;;;;;7.06;51.48;95099.50;5110345;28;20114;-78
2023/03/18 08:05:07;;;;;;;23.48;16.08;;;;;;;7.53;49.78;95135.19;5104802;28;20047;-79
2023/03/18 08:07:33;;;;;;;23.27;16.77;;;;;;;7.06;48.91;95048.66;5110021;28;20485;-78
2023/03/18 08:09:59;;;;;;;21.95;15.23;;;;;;;7.51;48.94;95102.59;5110138;28;20027;-78
2023/03/18 08:12:25;;;;;;;16.42;10.80;;;;;;;7.07;48.63;95065.81;5111201;28;20059;-78
2023/03/18 08:14:51;;;;;;;26.90;19.25;;;;;;;7.63;48.48;95114.69;5111057;28;20028;-80
2023/03/18 08:17:16;;;;;;;24.13;14.75;;;;;;;7.85;48.43;95145.13;5120268;27;20027;-78
2023/03/18 08:19:42;;;;;;;23.80;15.32;;;;;;;7.69;49.06;95154.84;5109771;28;20057;-79
2023/03/18 08:22:08;;;;;;;25.77;16.17;;;;;;;7.65;49.25;95143.06;5111470;28;20024;-79
2023/03/18 08:24:36;;;;;;;24.75;15.60;;;;;;;7.49;49.95;95164.72;5106894;28;20066;-79
2023/03/18 08:27:01;;;;;;;16.63;11.57;;;;;;;6.77;50.43;95161.59;5081156;28;20092;-78
2023/03/18 08:29:27;;;;;;;16.30;11.40;;;;;;;6.08;52.29;95140.00;5107372;28;20031;-79
2023/03/18 08:31:53;;;;;;;20.23;12.82;;;;;;;6.61;52.05;95159.13;5111755;28;20031;-79
2023/03/18 08:34:18;;;;;;;18.30;13.10;;;;;;;6.85;52.34;95133.53;5109503;27;20034;-79
2023/03/18 08:36:44;;;;;;;16.83;10.43;;;;;;;6.54;51.33;95163.00;5109181;28;20443;-79
2023/03/18 08:39:09;;;;;;;17.13;11.02;;;;;;;6.51;52.39;95154.63;5109324;28;20028;-79
2023/03/18 08:41:35;;;;;;;17.08;10.45;;;;;;;6.74;50.37;95140.28;5091778;28;20031;-79
2023/03/18 08:44:06;;;;;;;19.10;11.98;;;;;;;7.00;51.95;95136.91;5073926;28;20114;-80
2023/03/18 08:46:32;;;;;;;21.27;13.20;;;;;;;7.16;50.82;95153.09;5089731;28;20414;-79
2023/03/18 08:48:58;;;;;;;17.05;12.00;;;;;;;7.24;51.19;95146.56;5073249;28;20032;-80
2023/03/18 08:51:24;;;;;;;16.08;10.35;;;;;;;7.43;51.61;95144.47;5108852;28;20076;-79
2023/03/18 08:53:50;;;;;;;18.67;11.40;;;;;;;7.46;50.74;95107.25;5088829;28;20023;-82
2023/03/18 08:56:15;;;;;;;16.13;10.60;;;;;;;7.38;49.57;95099.97;5101471;28;20327;-79
2023/03/18 08:58:43;;;;;;;19.77;11.57;;;;;;;7.47;50.11;95151.09;5079806;28;20416;-79
2023/03/18 09:01:09;;;;;;;18.73;10.43;;;;;;;7.59;49.52;95152.88;5093159;28;20077;-78
2023/03/18 09:03:35;;;;;;;17.38;11.60;;;;;;;8.06;49.31;95154.06;5086303;28;20040;-82
2023/03/18 09:06:00;;;;;;;15.63;11.05;;;;;;;7.84;48.27;95117.63;5108250;28;20039;-89
2023/03/18 09:08:28;;;;;;;16.77;11.32;;;;;;;7.90;48.79;95137.91;5104516;27;20039;-76
2023/03/18 09:10:53;;;;;;;18.35;10.27;;;;;;;8.00;47.58;95157.06;5119415;27;20015;-82
2023/03/18 09:13:20;;;;;;;14.32;9.77;;;;;;;7.95;48.28;95130.66;5120183;28;20118;-78
2023/03/18 09:15:45;;;;;;;14.30;9.00;;;;;;;7.85;47.43;95139.97;5116485;28;20020;-77
2023/03/18 09:18:15;;;;;;;12.25;8.48;;;;;;;8.01;46.53;95156.13;5112933;28;20031;-82
2023/03/18 09:20:41;;;;;;;15.85;10.20;;;;;;;7.97;46.85;95154.69;5109960;28;20027;-79
2023/03/18 09:23:07;;;;;;;16.52;10.30;;;;;;;7.52;47.29;95066.31;5109532;28;20022;-79
2023/03/18 09:25:33;;;;;;;19.83;11.13;;;;;;;8.07;48.04;95158.28;5110020;28;20122;-80
2023/03/18 09:27:59;;;;;;;17.17;9.98;;;;;;;8.17;47.82;95161.09;5110699;28;20024;-78
2023/03/18 09:30:26;;;;;;;12.40;8.50;;;;;;;8.15;46.93;95159.53;5110789;28;20503;-79
2023/03/18 09:32:52;;;;;;;15.20;9.52;;;;;;;8.36;46.71;95149.47;5109249;28;20036;-78
2023/03/18 09:35:18;;;;;;;11.93;7.97;;;;;;;8.20;45.53;95155.72;5110950;28;20031;-78
2023/03/18 09:37:43;;;;;;;9.10;5.88;;;;;;;8.13;42.20;95149.28;5108616;28;20016;-79
2023/03/18 09:40:15;;;;;;;8.32;5.05;;;;;;;8.41;42.23;95140.53;5108877;28;20508;-79
2023/03/18 09:42:50;;;;;;;10.23;5.63;;;;;;;8.57;42.03;95148.03;5089232;28;20134;-79
2023/03/18 09:45:38;;;;;;;7.45;4.60;;;;;;;8.50;40.29;95147.63;5089055;28;20032;-79
2023/03/18 09:48:18;;;;;;;6.43;4.13;;;;;;;8.57;39.80;95147.22;5072268;28;20024;-79
2023/03/18 09:50:47;;;;;;;7.80;5.23;;;;;;;8.74;40.94;95139.06;5087403;28;20471;-79
2023/03/18 09:53:22;;;;;;;8.95;5.72;;;;;;;8.60;41.63;95123.69;5088275;28;20300;-79
2023/03/18 09:55:59;;;;;;;10.10;6.35;;;;;;;8.52;41.67;95113.84;5070550;28;20024;-79
2023/03/18 09:58:40;;;;;;;6.82;5.47;;;;;;;8.71;41.95;95141.88;5086974;28;20173;-79
2023/03/18 10:01:06;;;;;;;12.02;6.75;;;;;;;8.36;42.10;95119.25;5088430;28;20587;-78
2023/03/18 10:03:45;;;;;;;12.57;9.05;;;;;;;8.53;43.97;95140.59;5053599;28;20158;-79
2023/03/18 10:06:15;;;;;;;7.82;5.95;;;;;;;8.64;41.73;95145.84;5088868;28;20074;-78
2023/03/18 10:08:43;;;;;;;6.88;4.68;;;;;;;8.49;41.18;95140.78;5072286;28;20028;-78
2023/03/18 10:11:30;;;;;;;8.40;4.95;;;;;;;8.32;41.15;95148.03;5089068;28;20121;-79
2023/03/18 10:14:21;;;;;;;7.22;4.95;;;;;;;8.07;41.52;95129.81;5088992;28;20494;-79
2023/03/18 10:16:47;;;;;;;6.60;4.60;;;;;;;8.48;41.27;95133.97;5073957;28;20409;-78
2023/03/18 10:19:12;;;;;;;6.40;4.47;;;;;;;8.77;39.16;95136.28;5090746;28;20035;-79
2023/03/18 10:22:10;;;;;;;7.95;4.90;;;;;;;8.60;40.71;95134.03;5092709;28;20043;-80
2023/03/18 10:24:46;;;;;;;8.80;5.68;;;;;;;8.64;40.98;95087.13;5084122;28;20066;-79
2023/03/18 10:27:37;;;;;;;9.82;5.80;;;;;;;9.14;39.35;95120.72;5092614;28;20060;-79
2023/03/18 10:30:03;;;;;;;8.57;5.07;;;;;;;9.08;38.25;95131.50;5092897;28;20562;-79
2023/03/18 10:32:40;;;;;;;9.07;5.45;;;;;;;9.12;39.37;95132.94;5093574;28;20515;-79
2023/03/18 10:35:05;;;;;;;6.35;4.55;;;;;;;9.19;38.28;95136.72;5075434;28;20115;-79
2023/03/18 10:37:50;;;;;;;7.07;4.68;;;;;;;9.28;37.83;95137.84;5093773;28;20461;-79
2023/03/18 10:40:17;;;;;;;7.63;5.22;;;;;;;8.87;39.16;95133.88;5094007;28;20024;-79
2023/03/18 10:42:43;;;;;;;8.30;5.35;;;;;;;8.67;39.70;95123.16;5092263;28;20024;-79
2023/03/18 10:45:14;;;;;;;9.35;5.20;;;;;;;8.68;39.09;95139.50;5092105;28;20413;-79
2023/03/18 10:47:40;;;;;;;9.05;6.55;;;;;;;8.65;40.14;95142.31;5093733;28;20024;-79
2023/03/18 10:50:19;;;;;;;7.95;5.40;;;;;;;8.60;39.20;95131.44;5092403;28;20098;-79
2023/03/18 10:52:50;;;;;;;8.82;5.40;;;;;;;8.58;39.23;95112.59;5092086;28;20028;-79
2023/03/18 10:55:19;;;;;;;7.55;4.57;;;;;;;8.59;37.71;95098.72;5075746;28;20036;-79
2023/03/18 10:57:45;;;;;;;5.93;3.75;;;;;;;8.58;35.94;95113.44;5075525;28;20040;-79
2023/03/18 11:00:32;;;;;;;5.95;4.10;;;;;;;8.43;35.97;95117.91;5091944;28;20028;-79
2023/03/18 11:02:58;;;;;;;5.55;4.25;;;;;;;8.79;36.46;95121.44;5077196;28;20292;-79
2023/03/18 11:05:36;;;;;;;6.18;4.22;;;;;;;8.73;35.83;95086.44;5058209;28;20056;-79
2023/03/18 11:08:04;;;;;;;6.28;3.83;;;;;;;9.07;35.35;95109.13;5091893;28;20508;-79
2023/03/18 11:10:39;;;;;;;10.27;4.75;;;;;;;8.83;34.93;95111.69;5075067;28;20039;-79
2023/03/18 11:13:05;;;;;;;10.30;6.40;;;;;;;8.71;35.82;95105.63;5058842;28;20505;-78
2023/03/18 11:15:35;;;;;;;10.00;6.68;;;;;;;8.94;36.11;95106.56;5091596;28;20031;-78
2023/03/18 11:18:04;;;;;;;11.38;6.70;;;;;;;9.13;35.74;95111.25;5091807;28;20405;-78
2023/03/18 11:20:41;;;;;;;7.20;5.03;;;;;;;8.97;35.83;95101.19;5075117;28;20075;-79
2023/03/18 11:23:19;;;;;;;8.38;5.70;;;;;;;8.99;35.38;95099.28;5091586;28;20020;-79
2023/03/18 11:25:51;;;;;;;5.95;4.00;;;;;;;8.79;34.92;95103.31;5092176;28;20553;-79
2023/03/18 11:28:28;;;;;;;10.05;6.00;;;;;;;8.66;35.38;95094.75;5091735;28;20028;-79